Time;durP1;ratioP1;P1;durP2;ratioP2;P2;SDS_P1;SDS_P2;PMS_P1;PMS_P2;Temp;Humidity;BMP_temperature;BMP_pressure;BME280_temperature;BME280_humidity;BME280_pressure;Samples;Min_cycle;Max_cycle;Signal;HPM_P1;HPM_P2
2022/10/10 00:01:30;;;;;;;53.40;30.70;;;;;;;8.52;100.00;101750.47;5034531;28;20429;-50
2022/10/10 00:03:59;;;;;;;57.20;30.67;;;;;;;8.46;100.00;101746.63;5034092;28;20478;-47
2022/10/10 00:06:27;;;;;;;54.77;30.33;;;;;;;8.42;100.00;101750.59;5034297;28;20428;-53
2022/10/10 00:09:00;;;;;;;56.83;30.37;;;;;;;8.39;100.00;101737.63;5034667;28;20436;-51
2022/10/10 00:11:29;;;;;;;57.97;32.93;;;;;;;8.36;100.00;101740.59;5033221;28;20526;-48
2022/10/10 00:13:57;;;;;;;56.40;30.93;;;;;;;8.35;100.00;101736.25;5034015;28;20467;-51
2022/10/10 00:16:25;;;;;;;54.13;30.87;;;;;;;8.33;100.00;101736.41;5034211;28;20436;-47
2022/10/10 00:18:52;;;;;;;58.03;32.03;;;;;;;8.34;100.00;101732.75;5034158;28;20436;-51
2022/10/10 00:21:20;;;;;;;51.70;30.80;;;;;;;8.33;100.00;101731.09;5034165;28;20945;-48
2022/10/10 00:23:47;;;;;;;53.93;31.97;;;;;;;8.32;100.00;101729.44;5013958;28;20469;-51
2022/10/10 00:26:15;;;;;;;67.07;60.53;;;;;;;8.31;100.00;101722.44;5014594;28;20441;-51
2022/10/10 00:28:47;;;;;;;33.93;30.63;;;;;;;8.29;100.00;101719.13;5014477;28;20441;-50
2022/10/10 00:31:15;;;;;;;31.47;29.93;;;;;;;8.28;100.00;101721.94;5013963;28;20473;-48
2022/10/10 00:33:42;;;;;;;31.20;29.60;;;;;;;8.27;100.00;101722.91;5013840;28;20534;-51
2022/10/10 00:36:10;;;;;;;31.87;30.50;;;;;;;8.26;100.00;101713.25;5014167;28;20436;-51
2022/10/10 00:38:38;;;;;;;30.93;29.50;;;;;;;8.24;100.00;101705.44;5014318;28;20441;-50
2022/10/10 00:41:06;;;;;;;31.80;30.23;;;;;;;8.25;100.00;101700.94;5013928;28;20437;-53
2022/10/10 00:43:35;;;;;;;31.00;29.40;;;;;;;8.23;100.00;101694.97;5013573;28;21012;-48
2022/10/10 00:46:04;;;;;;;30.97;29.50;;;;;;;8.23;100.00;101687.00;5013938;28;20429;-51
2022/10/10 00:48:35;;;;;;;32.73;30.83;;;;;;;8.20;100.00;101690.81;5014032;28;20870;-51
2022/10/10 00:51:07;;;;;;;32.03;29.80;;;;;;;8.20;100.00;101687.31;5013857;28;20483;-51
2022/10/10 00:53:38;;;;;;;31.93;30.00;;;;;;;8.19;100.00;101689.13;5013520;28;21147;-50
2022/10/10 00:56:08;;;;;;;30.93;29.00;;;;;;;8.14;100.00;101683.47;5013825;28;20910;-50
2022/10/10 00:58:37;;;;;;;31.20;29.67;;;;;;;8.13;100.00;101680.97;5013863;28;20515;-53
2022/10/10 01:01:07;;;;;;;31.80;30.40;;;;;;;8.10;100.00;101671.47;5013710;28;20468;-49
2022/10/10 01:03:35;;;;;;;30.93;29.53;;;;;;;8.10;100.00;101676.78;5013511;28;20476;-52
2022/10/10 01:06:03;;;;;;;30.90;29.47;;;;;;;8.07;100.00;101674.47;5013742;28;20460;-51
2022/10/10 01:08:31;;;;;;;32.30;30.47;;;;;;;8.06;100.00;101664.00;5013591;28;20515;-51
2022/10/10 01:11:19;;;;;;;32.07;30.43;;;;;;;8.04;100.00;101674.78;5013220;28;20425;-51
2022/10/10 01:13:55;;;;;;;30.90;29.30;;;;;;;8.03;100.00;101659.00;5013186;28;20458;-49
2022/10/10 01:16:31;;;;;;;31.97;29.97;;;;;;;8.01;100.00;101656.50;5013312;28;20429;-51
2022/10/10 01:19:07;;;;;;;32.17;30.30;;;;;;;8.00;100.00;101649.53;5013350;28;20914;-49
2022/10/10 01:21:42;;;;;;;31.90;30.20;;;;;;;7.98;100.00;101655.97;5031352;28;20763;-51
2022/10/10 01:24:29;;;;;;;31.00;29.50;;;;;;;7.95;100.00;101654.47;5032736;28;20573;-47
2022/10/10 01:27:16;;;;;;;31.57;29.77;;;;;;;7.93;100.00;101647.66;5033042;28;20452;-49
2022/10/10 01:29:48;;;;;;;31.27;29.57;;;;;;;7.90;100.00;101638.19;5032808;28;20509;-51
2022/10/10 01:32:22;;;;;;;32.80;30.67;;;;;;;7.89;100.00;101633.00;5032801;28;20480;-49
2022/10/10 01:35:00;;;;;;;31.20;29.80;;;;;;;7.88;100.00;101626.88;5032715;28;20909;-54
2022/10/10 01:37:37;;;;;;;50.50;47.70;;;;;;;7.85;100.00;101621.88;5032837;28;20526;-48
2022/10/10 01:40:11;;;;;;;31.33;29.80;;;;;;;7.86;100.00;101618.22;5032780;28;20428;-50
2022/10/10 01:42:45;;;;;;;32.40;30.33;;;;;;;7.83;100.00;101621.19;5031912;28;20428;-48
2022/10/10 01:45:13;;;;;;;32.80;30.90;;;;;;;7.82;100.00;101620.34;5032875;28;20477;-53
2022/10/10 01:47:41;;;;;;;32.60;30.90;;;;;;;7.80;100.00;101609.06;5032558;28;20498;-49
2022/10/10 01:50:14;;;;;;;32.77;30.83;;;;;;;7.79;100.00;101601.28;5032529;28;20436;-53
2022/10/10 01:52:52;;;;;;;32.60;30.97;;;;;;;7.79;100.00;101595.97;5031716;28;20558;-52
2022/10/10 01:55:33;;;;;;;30.70;29.30;;;;;;;7.77;100.00;101589.97;5032384;28;20435;-50
2022/10/10 01:58:17;;;;;;;31.63;29.93;;;;;;;7.76;100.00;101580.34;5032468;28;20456;-48
2022/10/10 02:00:53;;;;;;;32.10;30.53;;;;;;;7.74;100.00;101577.84;5032084;28;20459;-47
2022/10/10 02:03:27;;;;;;;31.70;29.80;;;;;;;7.74;100.00;101574.34;5032070;28;20463;-55
2022/10/10 02:06:00;;;;;;;32.07;30.23;;;;;;;7.74;100.00;101571.69;5032296;28;20925;-51
2022/10/10 02:08:33;;;;;;;31.50;30.00;;;;;;;7.75;100.00;101574.19;5032512;28;20872;-51
2022/10/10 02:11:04;;;;;;;32.53;30.87;;;;;;;7.74;100.00;101572.53;5032107;28;20432;-47
2022/10/10 02:13:38;;;;;;;32.23;30.33;;;;;;;7.74;100.00;101569.03;5031626;28;20985;-50
2022/10/10 02:16:13;;;;;;;31.67;30.07;;;;;;;7.74;100.00;101561.91;5032333;28;20428;-50
2022/10/10 02:18:44;;;;;;;31.93;30.33;;;;;;;7.72;100.00;101565.72;5032222;28;20431;-50
2022/10/10 02:21:13;;;;;;;32.67;30.87;;;;;;;7.72;100.00;101563.91;5031781;28;20458;-49
2022/10/10 02:23:42;;;;;;;31.83;30.33;;;;;;;7.71;100.00;101562.22;5031509;28;20464;-53
2022/10/10 02:26:12;;;;;;;31.00;29.60;;;;;;;7.70;100.00;101557.94;5032206;28;20440;-51
2022/10/10 02:28:46;;;;;;;32.47;30.70;;;;;;;7.67;100.00;101555.59;5032103;28;20440;-50
2022/10/10 02:31:21;;;;;;;31.97;30.03;;;;;;;7.69;100.00;101558.06;5031785;28;20436;-48
2022/10/10 02:33:55;;;;;;;32.30;30.77;;;;;;;7.68;100.00;101553.75;5030808;28;20533;-50
2022/10/10 02:36:25;;;;;;;33.60;31.27;;;;;;;7.65;100.00;101557.53;5031663;28;20420;-53
2022/10/10 02:38:53;;;;;;;32.30;30.60;;;;;;;7.64;100.00;101558.56;5031768;28;20486;-48
2022/10/10 02:41:22;;;;;;;33.30;31.40;;;;;;;7.63;100.00;101554.22;5031557;28;20432;-50
2022/10/10 02:43:51;;;;;;;32.90;31.03;;;;;;;7.59;100.00;101544.91;5031349;28;20464;-49
2022/10/10 02:46:20;;;;;;;32.97;30.93;;;;;;;7.58;100.00;101548.56;5031627;28;20432;-50
2022/10/10 02:48:48;;;;;;;32.17;30.37;;;;;;;7.56;100.00;101547.03;5031541;28;20497;-51
2022/10/10 02:51:17;;;;;;;32.47;30.77;;;;;;;7.56;100.00;101547.03;5031700;28;20490;-52
2022/10/10 02:53:44;;;;;;;32.23;30.57;;;;;;;7.51;100.00;101536.91;5031053;28;20522;-50
2022/10/10 02:56:12;;;;;;;32.27;30.67;;;;;;;7.51;100.00;101536.06;5031758;28;20432;-52
2022/10/10 02:58:39;;;;;;;32.20;30.50;;;;;;;7.48;100.00;101539.88;5031661;28;20482;-50
2022/10/10 03:01:07;;;;;;;32.60;30.90;;;;;;;7.46;100.00;101533.06;5031368;28;20440;-52
2022/10/10 03:03:36;;;;;;;33.60;31.63;;;;;;;7.45;100.00;101534.03;5031046;28;20498;-49
2022/10/10 03:06:04;;;;;;;33.37;31.23;;;;;;;7.43;100.00;101522.75;5031457;28;20987;-54
2022/10/10 03:08:31;;;;;;;33.50;31.60;;;;;;;7.42;100.00;101521.09;5031626;28;20455;-50
2022/10/10 03:11:01;;;;;;;35.37;33.07;;;;;;;7.40;100.00;101518.59;5031325;28;20482;-51
2022/10/10 03:13:28;;;;;;;34.37;32.80;;;;;;;7.40;100.00;101521.25;5030984;28;20468;-51
2022/10/10 03:15:56;;;;;;;32.93;31.43;;;;;;;7.39;100.00;101516.94;5031282;28;20479;-51
2022/10/10 03:18:24;;;;;;;34.93;32.63;;;;;;;7.37;100.00;101521.56;5031294;28;20514;-47
2022/10/10 03:20:55;;;;;;;33.30;31.73;;;;;;;7.36;100.00;101516.41;5031189;28;20432;-49
2022/10/10 03:23:23;;;;;;;32.47;30.83;;;;;;;7.34;100.00;101513.09;5031032;28;20973;-53
2022/10/10 03:25:51;;;;;;;33.97;31.77;;;;;;;7.33;100.00;101516.72;5031322;28;21003;-48
2022/10/10 03:28:18;;;;;;;32.37;31.00;;;;;;;7.30;100.00;101511.72;5031218;28;20869;-49
2022/10/10 03:30:46;;;;;;;33.73;32.13;;;;;;;7.29;100.00;101510.88;5031287;28;20432;-50
2022/10/10 03:33:14;;;;;;;34.37;32.67;;;;;;;7.28;100.00;101503.94;5030771;28;20472;-52
2022/10/10 03:35:41;;;;;;;33.13;31.53;;;;;;;7.26;100.00;101497.94;5031433;28;20874;-47
2022/10/10 03:38:12;;;;;;;33.43;31.70;;;;;;;7.25;100.00;101490.97;5031178;28;20973;-48
2022/10/10 03:40:41;;;;;;;33.57;31.60;;;;;;;7.24;100.00;101494.63;5031198;28;20427;-50
2022/10/10 03:43:11;;;;;;;33.17;31.27;;;;;;;7.23;100.00;101491.13;5030815;28;20452;-53
2022/10/10 03:45:38;;;;;;;34.20;32.30;;;;;;;7.22;100.00;101489.47;5034011;28;20424;-53
2022/10/10 03:48:06;;;;;;;33.10;31.13;;;;;;;7.21;100.00;101487.81;5034174;28;20452;-52
2022/10/10 03:50:34;;;;;;;33.33;31.30;;;;;;;7.21;100.00;101479.00;5034478;28;20465;-53
2022/10/10 03:53:02;;;;;;;32.10;30.23;;;;;;;7.21;100.00;101482.50;5034134;28;20472;-53
2022/10/10 03:55:31;;;;;;;33.80;32.00;;;;;;;7.21;100.00;101474.53;5034321;28;21002;-54
2022/10/10 03:57:58;;;;;;;35.53;33.23;;;;;;;7.22;100.00;101484.19;5034779;28;20590;-52
2022/10/10 04:00:26;;;;;;;35.00;33.20;;;;;;;7.21;100.00;101477.19;5034628;28;20682;-55
2022/10/10 04:02:54;;;;;;;35.00;33.20;;;;;;;7.20;100.00;101467.56;5034098;28;20972;-55
2022/10/10 04:05:21;;;;;;;34.77;32.97;;;;;;;7.19;100.00;101465.91;5034515;28;20937;-54
2022/10/10 04:07:49;;;;;;;33.60;31.87;;;;;;;7.18;100.00;101463.41;5034480;28;20509;-50
2022/10/10 04:10:17;;;;;;;34.20;32.10;;;;;;;7.16;100.00;101468.88;5034480;28;20941;-51
2022/10/10 04:12:45;;;;;;;33.87;31.97;;;;;;;7.14;100.00;101459.41;5033708;28;20969;-49
2022/10/10 04:15:13;;;;;;;33.53;31.87;;;;;;;7.13;100.00;101452.44;5034196;28;20468;-53
2022/10/10 04:17:41;;;;;;;35.30;33.10;;;;;;;7.12;100.00;101456.91;5034162;28;20460;-56
2022/10/10 04:20:09;;;;;;;34.07;32.00;;;;;;;7.11;100.00;101451.75;5034178;28;20840;-53
2022/10/10 04:22:36;;;;;;;34.00;32.17;;;;;;;7.10;100.00;101450.94;5033257;28;20479;-51
2022/10/10 04:25:05;;;;;;;34.20;32.40;;;;;;;7.08;100.00;101434.34;5034425;28;20428;-51
2022/10/10 04:27:32;;;;;;;34.13;32.53;;;;;;;7.06;100.00;101436.31;5034191;28;20519;-55
2022/10/10 04:30:01;;;;;;;34.00;31.87;;;;;;;7.04;100.00;101433.00;5034017;28;20436;-51
2022/10/10 04:32:29;;;;;;;33.30;31.53;;;;;;;7.03;100.00;101427.84;5033881;28;20452;-50
2022/10/10 04:34:56;;;;;;;34.30;32.27;;;;;;;7.00;100.00;101430.81;5033875;28;20541;-51
2022/10/10 04:37:24;;;;;;;33.30;31.60;;;;;;;6.99;100.00;101424.66;5034109;28;20845;-51
2022/10/10 04:39:51;;;;;;;34.27;32.30;;;;;;;6.97;100.00;101431.97;5034153;28;20486;-47
2022/10/10 04:42:19;;;;;;;33.87;31.77;;;;;;;6.94;100.00;101424.31;5033710;28;20432;-48
2022/10/10 04:44:47;;;;;;;34.73;32.53;;;;;;;6.93;100.00;101429.78;5033469;28;20464;-47
2022/10/10 04:47:15;;;;;;;34.60;32.70;;;;;;;6.91;100.00;101429.94;5033645;28;20483;-46
2022/10/10 04:49:43;;;;;;;34.60;32.70;;;;;;;6.89;100.00;101428.44;5033582;28;21104;-51
2022/10/10 04:52:11;;;;;;;34.50;32.60;;;;;;;6.86;100.00;101429.56;5033688;28;20436;-49
2022/10/10 04:54:39;;;;;;;34.03;32.33;;;;;;;6.83;100.00;101424.59;5033050;28;21000;-52
2022/10/10 04:57:07;;;;;;;36.50;34.10;;;;;;;6.82;100.00;101427.38;5032895;28;20533;-50
2022/10/10 04:59:34;;;;;;;34.60;32.70;;;;;;;6.81;100.00;101420.44;5033665;28;20440;-48
2022/10/10 05:02:02;;;;;;;35.90;33.80;;;;;;;6.79;100.00;101420.56;5033318;28;20428;-53
2022/10/10 05:04:31;;;;;;;36.53;34.40;;;;;;;6.78;100.00;101415.44;5032887;28;20538;-50
2022/10/10 05:06:59;;;;;;;36.10;34.00;;;;;;;6.76;100.00;101412.94;5033378;28;20460;-49
2022/10/10 05:09:26;;;;;;;37.63;34.47;;;;;;;6.76;100.00;101407.63;5033449;28;20440;-51
2022/10/10 05:11:54;;;;;;;37.33;34.90;;;;;;;6.74;100.00;101409.63;5032955;28;20490;-52
2022/10/10 05:14:22;;;;;;;37.13;35.17;;;;;;;6.74;100.00;101409.63;5032724;28;21001;-49
2022/10/10 05:16:49;;;;;;;36.77;34.43;;;;;;;6.73;100.00;101413.25;5032913;28;20514;-50
2022/10/10 05:19:17;;;;;;;35.57;33.20;;;;;;;6.72;100.00;101402.81;5033012;28;20440;-47
2022/10/10 05:21:46;;;;;;;34.43;32.53;;;;;;;6.71;100.00;101401.13;5032910;28;20833;-51
2022/10/10 05:24:13;;;;;;;34.93;32.77;;;;;;;6.72;100.00;101402.81;5032707;28;20811;-49
2022/10/10 05:26:41;;;;;;;35.33;33.13;;;;;;;6.71;100.00;101403.78;5032995;28;20510;-50
2022/10/10 05:29:10;;;;;;;36.93;34.77;;;;;;;6.72;100.00;101400.16;5032860;28;20444;-49
2022/10/10 05:31:37;;;;;;;36.40;34.10;;;;;;;6.72;100.00;101398.31;5032717;28;20929;-48
2022/10/10 05:34:05;;;;;;;35.87;33.83;;;;;;;6.72;100.00;101394.84;5032281;28;20502;-48
2022/10/10 05:36:33;;;;;;;35.27;33.57;;;;;;;6.73;100.00;101394.69;5032982;28;20482;-49
2022/10/10 05:39:02;;;;;;;39.40;36.50;;;;;;;6.72;100.00;101387.72;5032736;28;20436;-47
2022/10/10 05:41:29;;;;;;;36.47;34.17;;;;;;;6.74;100.00;101391.06;5032413;28;20991;-47
2022/10/10 05:43:57;;;;;;;35.70;33.33;;;;;;;6.74;100.00;101388.41;5032176;28;20464;-53
2022/10/10 05:46:26;;;;;;;36.47;33.97;;;;;;;6.73;100.00;101384.09;5032566;28;20465;-47
2022/10/10 05:48:54;;;;;;;36.83;34.43;;;;;;;6.75;100.00;101381.28;5032623;28;20440;-52
2022/10/10 05:51:22;;;;;;;35.73;33.33;;;;;;;6.78;100.00;101378.31;5032488;28;20536;-52
2022/10/10 05:53:49;;;;;;;36.40;34.40;;;;;;;6.81;100.00;101373.53;5031988;28;20882;-51
2022/10/10 05:56:18;;;;;;;34.73;32.80;;;;;;;6.83;100.00;101368.06;5032336;28;20876;-48
2022/10/10 05:58:46;;;;;;;35.80;33.60;;;;;;;6.87;100.00;101370.25;5032705;28;20436;-51
2022/10/10 06:01:14;;;;;;;34.93;32.90;;;;;;;6.90;100.00;101372.56;5032126;28;20494;-49
2022/10/10 06:03:41;;;;;;;36.00;33.90;;;;;;;6.94;100.00;101368.63;5031882;28;20468;-46
2022/10/10 06:06:09;;;;;;;35.50;33.60;;;;;;;6.99;100.00;101370.81;5032302;28;20436;-49
2022/10/10 06:08:36;;;;;;;33.70;32.00;;;;;;;7.03;100.00;101357.06;5031363;28;20521;-53
2022/10/10 06:11:07;;;;;;;34.40;32.30;;;;;;;7.09;100.00;101355.59;5031857;28;20429;-51
2022/10/10 06:13:37;;;;;;;34.60;32.50;;;;;;;7.14;100.00;101350.66;5031739;28;20525;-50
2022/10/10 06:16:05;;;;;;;34.73;32.50;;;;;;;7.20;100.00;101357.97;5032136;28;20479;-51
2022/10/10 06:18:33;;;;;;;33.60;31.80;;;;;;;7.27;100.00;101345.75;5031897;28;20467;-47
2022/10/10 06:21:01;;;;;;;34.57;32.37;;;;;;;7.34;100.00;101359.19;5031772;28;20432;-53
2022/10/10 06:23:29;;;;;;;34.83;32.73;;;;;;;7.37;100.00;101343.78;5031462;28;20892;-51
2022/10/10 06:25:56;;;;;;;35.20;32.93;;;;;;;7.42;100.00;101345.94;5031910;28;20432;-47
2022/10/10 06:28:24;;;;;;;34.07;32.27;;;;;;;7.50;100.00;101344.16;5031837;28;20510;-49
2022/10/10 06:30:53;;;;;;;34.63;32.43;;;;;;;7.58;100.00;101348.66;5031715;28;20443;-47
2022/10/10 06:33:21;;;;;;;35.27;32.97;;;;;;;7.64;100.00;101343.53;5031424;28;20795;-51
2022/10/10 06:35:49;;;;;;;33.93;32.00;;;;;;;7.70;100.00;101347.38;5031784;28;21003;-48
2022/10/10 06:38:17;;;;;;;34.00;32.10;;;;;;;7.76;100.00;101349.38;5031769;28;21289;-52
2022/10/10 06:40:44;;;;;;;34.60;32.80;;;;;;;7.78;100.00;101348.19;5031826;28;20437;-51
2022/10/10 06:43:13;;;;;;;33.97;32.23;;;;;;;7.80;100.00;101346.19;5031392;28;20467;-48
2022/10/10 06:45:44;;;;;;;34.27;32.43;;;;;;;7.89;100.00;101339.06;5031839;28;20790;-50
2022/10/10 06:48:14;;;;;;;33.40;31.70;;;;;;;7.93;100.00;101352.84;5031705;28;20452;-46
2022/10/10 06:50:42;;;;;;;35.23;33.20;;;;;;;7.94;100.00;101342.09;5031682;28;20494;-49
2022/10/10 06:53:09;;;;;;;34.13;32.03;;;;;;;7.98;100.00;101335.44;5031045;28;20513;-51
2022/10/10 06:55:37;;;;;;;34.93;32.93;;;;;;;8.05;100.00;101335.59;5031610;28;20522;-49
2022/10/10 06:58:06;;;;;;;37.03;34.47;;;;;;;8.16;100.00;101335.25;5031568;28;20857;-51
2022/10/10 07:00:33;;;;;;;35.23;33.03;;;;;;;8.27;100.00;101335.78;5031583;28;20428;-52
2022/10/10 07:03:01;;;;;;;34.50;32.57;;;;;;;8.39;100.00;101335.47;5030811;28;20526;-52
2022/10/10 07:05:30;;;;;;;35.07;32.87;;;;;;;8.51;100.00;101340.25;5031800;28;20886;-53
2022/10/10 07:07:58;;;;;;;34.27;32.27;;;;;;;8.64;100.00;101339.72;5031378;28;20460;-52
2022/10/10 07:10:25;;;;;;;35.03;32.70;;;;;;;8.81;100.00;101333.41;5031404;28;20964;-50
2022/10/10 07:12:53;;;;;;;35.67;33.53;;;;;;;9.01;100.00;101334.66;5030977;28;20498;-53
2022/10/10 07:15:21;;;;;;;34.23;32.37;;;;;;;9.14;100.00;101328.78;5031377;28;20526;-52
2022/10/10 07:17:48;;;;;;;33.90;31.90;;;;;;;9.29;100.00;101330.53;5031143;28;20987;-50
2022/10/10 07:20:20;;;;;;;33.43;31.63;;;;;;;9.49;100.00;101330.09;5034111;28;20505;-50
2022/10/10 07:22:49;;;;;;;33.30;31.57;;;;;;;9.68;100.00;101340.28;5034795;28;20509;-52
2022/10/10 07:25:17;;;;;;;33.97;32.20;;;;;;;9.81;100.00;101333.38;5035406;28;20432;-48
2022/10/10 07:27:45;;;;;;;36.03;33.57;;;;;;;9.89;100.00;101327.16;5035180;28;20456;-52
2022/10/10 07:30:14;;;;;;;35.40;32.97;;;;;;;9.91;100.00;101330.50;5035067;28;20431;-48
2022/10/10 07:32:42;;;;;;;34.03;32.30;;;;;;;9.97;100.00;101335.13;5034629;28;20436;-53
2022/10/10 07:35:10;;;;;;;33.60;32.00;;;;;;;10.06;100.00;101318.06;5034960;28;20471;-51
2022/10/10 07:37:38;;;;;;;34.50;32.70;;;;;;;10.15;100.00;101322.34;5035129;28;20863;-52
2022/10/10 07:40:09;;;;;;;35.00;33.20;;;;;;;10.11;100.00;101323.66;5035021;28;20432;-54
2022/10/10 07:42:36;;;;;;;34.60;32.63;;;;;;;10.18;100.00;101324.66;5034313;28;20431;-49
2022/10/10 07:45:05;;;;;;;34.10;32.50;;;;;;;10.33;100.00;101322.00;5035197;28;20494;-48
2022/10/10 07:47:33;;;;;;;35.17;32.93;;;;;;;10.40;100.00;101323.75;5035017;28;20494;-54
2022/10/10 07:50:00;;;;;;;36.37;34.37;;;;;;;10.47;100.00;101332.69;5034836;28;21018;-50
2022/10/10 07:52:28;;;;;;;35.00;33.30;;;;;;;10.59;100.00;101322.41;5034088;28;21002;-51
2022/10/10 07:54:55;;;;;;;35.23;33.23;;;;;;;10.74;100.00;101319.75;5034675;28;20490;-52
2022/10/10 07:57:24;;;;;;;34.80;32.90;;;;;;;10.84;100.00;101315.78;5034895;28;20510;-50
2022/10/10 07:59:52;;;;;;;35.30;33.70;;;;;;;10.92;100.00;101312.22;5034892;28;20436;-49
2022/10/10 08:02:19;;;;;;;36.87;34.67;;;;;;;11.07;100.00;101315.69;5034386;28;20436;-52
2022/10/10 08:04:47;;;;;;;35.80;34.10;;;;;;;11.19;100.00;101310.72;5034188;28;20472;-50
2022/10/10 08:07:14;;;;;;;34.90;33.23;;;;;;;11.23;100.00;101307.47;5034436;28;20454;-50
2022/10/10 08:09:42;;;;;;;35.80;33.93;;;;;;;11.35;99.96;101308.66;5034487;28;20440;-50
2022/10/10 08:12:10;;;;;;;34.80;33.07;;;;;;;11.41;97.93;101302.56;5034447;28;20467;-48
2022/10/10 08:14:39;;;;;;;36.47;34.60;;;;;;;11.53;98.03;101301.03;5034033;28;20468;-47
2022/10/10 08:17:06;;;;;;;34.20;32.50;;;;;;;11.61;97.01;101298.28;5034227;28;20538;-48
2022/10/10 08:19:34;;;;;;;33.70;32.00;;;;;;;11.74;97.07;101297.59;5034213;28;20433;-50
2022/10/10 08:22:02;;;;;;;33.50;31.57;;;;;;;11.82;94.63;101302.00;5033854;28;20439;-52
2022/10/10 08:24:29;;;;;;;30.10;28.80;;;;;;;12.00;96.71;101297.03;5033764;28;20480;-51
2022/10/10 08:26:57;;;;;;;32.07;30.47;;;;;;;12.14;95.00;101298.78;5034349;28;20456;-50
2022/10/10 08:29:25;;;;;;;31.70;30.30;;;;;;;12.26;94.46;101289.22;5034053;28;20440;-47
2022/10/10 08:31:54;;;;;;;32.80;30.97;;;;;;;12.33;92.10;101282.09;5033006;28;20834;-50
2022/10/10 08:34:21;;;;;;;31.53;30.03;;;;;;;12.47;92.48;101272.28;5033630;28;20550;-47
2022/10/10 08:36:49;;;;;;;31.30;29.90;;;;;;;12.53;90.63;101275.00;5033701;28;20892;-53
2022/10/10 08:39:17;;;;;;;30.40;28.90;;;;;;;12.61;90.79;101269.50;5034006;28;20486;-51
2022/10/10 08:41:49;;;;;;;30.53;29.20;;;;;;;12.70;90.18;101267.47;5033998;28;20455;-51
2022/10/10 08:44:22;;;;;;;30.63;28.93;;;;;;;12.76;88.49;101267.53;5033555;28;20467;-51
2022/10/10 08:46:56;;;;;;;30.27;28.67;;;;;;;12.86;89.14;101269.00;5033842;28;20444;-47
2022/10/10 08:49:29;;;;;;;28.93;27.27;;;;;;;12.87;87.79;101260.81;5033682;28;20498;-51
2022/10/10 08:52:03;;;;;;;29.10;27.53;;;;;;;12.94;87.86;101267.00;5033633;28;20421;-49
2022/10/10 08:54:34;;;;;;;29.00;27.80;;;;;;;12.97;86.19;101265.75;5033256;28;20472;-50
2022/10/10 08:57:05;;;;;;;29.17;27.87;;;;;;;13.06;86.98;101261.88;5033651;28;20480;-50
2022/10/10 08:59:36;;;;;;;26.27;25.17;;;;;;;13.13;86.47;101266.28;5033599;28;20451;-52
2022/10/10 09:02:27;;;;;;;28.17;27.07;;;;;;;13.24;85.61;101264.88;5033679;28;20841;-52
2022/10/10 09:05:18;;;;;;;28.80;27.57;;;;;;;13.35;85.51;101272.31;5033350;28;20539;-50
2022/10/10 09:08:07;;;;;;;27.00;25.77;;;;;;;13.43;86.08;101271.31;5033363;28;20482;-50
2022/10/10 09:10:45;;;;;;;27.37;26.17;;;;;;;13.51;86.20;101269.28;5033569;28;20833;-51
2022/10/10 09:13:23;;;;;;;27.33;26.13;;;;;;;13.62;86.68;101276.72;5033028;28;20518;-52
2022/10/10 09:15:55;;;;;;;26.47;25.30;;;;;;;13.64;84.93;101269.31;5033252;28;21068;-47
2022/10/10 09:18:38;;;;;;;25.80;24.57;;;;;;;13.65;83.95;101270.16;5032906;28;20537;-47
2022/10/10 09:21:13;;;;;;;25.80;24.70;;;;;;;13.82;85.77;101261.50;5033010;28;20478;-50
2022/10/10 09:23:46;;;;;;;24.63;23.57;;;;;;;13.88;84.08;101264.38;5032617;28;20533;-51
2022/10/10 09:26:17;;;;;;;25.67;24.57;;;;;;;14.02;84.15;101263.34;5033131;28;20428;-49
2022/10/10 09:28:50;;;;;;;24.00;22.70;;;;;;;14.07;82.88;101258.19;5032996;28;20436;-49
2022/10/10 09:31:22;;;;;;;23.70;22.70;;;;;;;14.21;83.01;101254.50;5033031;28;20432;-49
2022/10/10 09:33:55;;;;;;;24.13;22.30;;;;;;;14.33;83.19;101251.00;5032586;28;20463;-47
2022/10/10 09:36:27;;;;;;;22.40;21.27;;;;;;;14.46;82.28;101241.25;5032699;28;20475;-50
2022/10/10 09:38:59;;;;;;;22.93;21.73;;;;;;;14.55;81.46;101234.63;5032733;28;20440;-48
2022/10/10 09:41:33;;;;;;;21.80;20.70;;;;;;;14.69;80.91;101237.09;5032471;28;20424;-52
2022/10/10 09:44:06;;;;;;;19.87;18.87;;;;;;;14.79;80.50;101228.56;5032213;28;20468;-48
2022/10/10 09:46:33;;;;;;;18.77;17.80;;;;;;;14.91;78.68;101233.06;5032713;28;20425;-48
2022/10/10 09:49:03;;;;;;;18.27;17.47;;;;;;;15.00;78.72;101217.53;5032705;28;20471;-48
2022/10/10 09:51:32;;;;;;;17.23;16.53;;;;;;;15.06;78.18;101229.28;5032224;28;20470;-49
2022/10/10 09:54:00;;;;;;;17.80;16.90;;;;;;;15.22;78.99;101224.25;5032062;28;20476;-47
2022/10/10 09:56:31;;;;;;;17.13;16.30;;;;;;;15.33;77.58;101228.09;5032478;28;20468;-47
2022/10/10 09:58:59;;;;;;;15.90;15.20;;;;;;;15.47;77.49;101225.16;5032673;28;20444;-50
2022/10/10 10:01:29;;;;;;;16.40;15.30;;;;;;;15.58;76.25;101220.97;5032235;28;20432;-47
2022/10/10 10:04:12;;;;;;;16.13;15.20;;;;;;;15.74;76.09;101212.34;5032017;28;20468;-48
2022/10/10 10:07:06;;;;;;;16.00;15.40;;;;;;;15.97;76.71;101214.44;5032423;28;20448;-49
2022/10/10 10:09:34;;;;;;;16.03;15.23;;;;;;;15.97;74.10;101214.44;5032386;28;20861;-49
2022/10/10 10:12:05;;;;;;;15.13;14.53;;;;;;;16.04;72.44;101218.72;5032004;28;20451;-45
2022/10/10 10:14:38;;;;;;;16.47;15.50;;;;;;;16.16;73.44;101210.72;5031679;28;20822;-48
2022/10/10 10:17:08;;;;;;;14.53;13.93;;;;;;;16.23;72.90;101214.19;5031875;28;20484;-50
2022/10/10 10:19:39;;;;;;;15.47;14.43;;;;;;;16.20;72.63;101213.81;5032270;28;20497;-51
2022/10/10 10:22:23;;;;;;;14.57;13.57;;;;;;;16.33;73.06;101214.50;5031865;28;20424;-48
2022/10/10 10:24:54;;;;;;;14.80;14.20;;;;;;;16.44;72.60;101219.16;5031751;28;20440;-47
2022/10/10 10:27:23;;;;;;;14.07;13.27;;;;;;;16.62;74.29;101220.22;5031826;28;20479;-47
2022/10/10 10:29:52;;;;;;;14.40;13.33;;;;;;;16.53;70.19;101219.69;5032113;28;20459;-50
2022/10/10 10:32:37;;;;;;;13.90;12.90;;;;;;;16.66;72.96;101210.66;5032458;28;20428;-51
2022/10/10 10:35:27;;;;;;;13.20;12.50;;;;;;;16.73;70.87;101211.38;5031861;28;20436;-46
2022/10/10 10:38:12;;;;;;;14.03;13.40;;;;;;;16.78;72.20;101208.88;5031970;28;20472;-50
2022/10/10 10:40:44;;;;;;;13.67;13.07;;;;;;;16.90;72.79;101209.75;5031954;28;20849;-49
2022/10/10 10:43:32;;;;;;;14.03;12.97;;;;;;;16.89;70.21;101198.16;5031283;28;21044;-54
2022/10/10 10:46:13;;;;;;;13.60;12.70;;;;;;;16.81;70.74;101203.84;5031723;28;20849;-54
2022/10/10 10:48:44;;;;;;;13.27;12.30;;;;;;;16.80;70.43;101199.50;5031876;28;20427;-50
2022/10/10 10:51:34;;;;;;;12.53;11.73;;;;;;;16.83;70.48;101199.06;5031635;28;20852;-48
2022/10/10 10:54:15;;;;;;;14.30;13.20;;;;;;;16.89;71.16;101197.31;5030619;28;20464;-48
2022/10/10 10:56:50;;;;;;;13.70;12.63;;;;;;;16.92;71.17;101192.31;5031735;28;20448;-49
2022/10/10 10:59:31;;;;;;;13.97;12.63;;;;;;;16.92;70.87;101197.69;5031797;28;20489;-50
2022/10/10 11:02:34;;;;;;;13.23;12.43;;;;;;;17.02;70.82;101189.88;5031375;28;20978;-47
2022/10/10 11:05:34;;;;;;;13.70;12.67;;;;;;;17.11;68.79;101190.41;5031637;28;20448;-51
2022/10/10 11:08:36;;;;;;;13.33;12.73;;;;;;;17.14;69.93;101189.94;5031518;28;20985;-49
2022/10/10 11:11:19;;;;;;;12.57;11.87;;;;;;;17.06;69.68;101185.69;5031181;28;20455;-53
2022/10/10 11:13:55;;;;;;;12.63;11.83;;;;;;;17.15;70.68;101188.88;5031161;28;20464;-54
2022/10/10 11:16:26;;;;;;;11.63;11.03;;;;;;;17.31;70.66;101177.47;5031386;28;20432;-50
2022/10/10 11:19:25;;;;;;;12.70;11.90;;;;;;;17.53;70.77;101183.16;5031354;28;20515;-51
2022/10/10 11:21:59;;;;;;;12.60;11.90;;;;;;;17.57;70.75;101178.94;5023882;28;20478;-54
2022/10/10 11:24:40;;;;;;;11.87;11.23;;;;;;;17.63;68.02;101178.84;5030983;28;21058;-50
2022/10/10 11:27:14;;;;;;;12.20;11.30;;;;;;;17.58;68.10;101172.50;5031372;28;20448;-54